North Lilbourn, Missouri
Current Conditions -  °F | °C
As of 5:53 PM on Wednesday 22 Oct 2014 (Local Time) from KPOF Reporting Station
Clear Clear  
Wind Chill: 62°   Ceiling: Unl
Heat Index: 62°   Visibility: 10mi
Dew Point: 42°   Wind: 3mph
Humidity: 48%   Direction: 80°E
Pressure: 30.2"   Gusts: NA
Location:  36.5917°N, 89.6449°W
Report Text: KPOF 222253Z AUTO 08003KT 10SM CLR 17/06 A3020 RMK AO2 SLP226 T01670056
Loading
Personal Weather Stations






























Interactive Weather Map
Tropical Storm Tracking
New forecast layout! Learn more

10-Day Weather Forecast

Advertisements
Track Severe Weather on mobile